<?xml version="1.0" encoding="utf-8"?>
<gpx xmlns:xsi="http://www.w3.org/2001/XMLSchema-instance" xmlns:xsd="http://www.w3.org/2001/XMLSchema" version="1.1" creator="Shapelink.com" xmlns="http://www.topografix.com/GPX/1/1" xmlns:gpxtpx="http://www.garmin.com/xmlschemas/TrackPointExtension/v1">
  <metadata>
    <name>Cycling 14.60 km, 2020-07-12</name>
    <desc></desc>
    <author><name>Marian Moron</name></author> 
    <time>2020-07-12T15:44:11Z</time>
  </metadata>
  <trk>
    <name>Cycling 14.60 km, 2020-07-12</name>
    <trkseg>
      <trkpt lat="51.228910988774" lon="4.448593764209">
        <ele>13.6</ele>
        <time>2020-07-12T15:44:11Z</time>
      </trkpt>
      <trkpt lat="51.228674283918" lon="4.447754149286">
        <ele>0</ele>
        <time>2020-07-12T15:44:28Z</time>
      </trkpt>
      <trkpt lat="51.228294583848" lon="4.447179067127">
        <ele>0</ele>
        <time>2020-07-12T15:44:55Z</time>
      </trkpt>
      <trkpt lat="51.227856713392" lon="4.44772866831">
        <ele>0</ele>
        <time>2020-07-12T15:45:21Z</time>
      </trkpt>
      <trkpt lat="51.22743359508" lon="4.448315485129">
        <ele>0</ele>
        <time>2020-07-12T15:45:46Z</time>
      </trkpt>
      <trkpt lat="51.227074430665" lon="4.448955024099">
        <ele>0</ele>
        <time>2020-07-12T15:46:08Z</time>
      </trkpt>
      <trkpt lat="51.227000083212" lon="4.449294658687">
        <ele>0</ele>
        <time>2020-07-12T15:46:17Z</time>
      </trkpt>
      <trkpt lat="51.226560536376" lon="4.449737977378">
        <ele>0</ele>
        <time>2020-07-12T15:46:43Z</time>
      </trkpt>
      <trkpt lat="51.226126270137" lon="4.450301995429">
        <ele>0</ele>
        <time>2020-07-12T15:47:05Z</time>
      </trkpt>
      <trkpt lat="51.225733326665" lon="4.450933152499">
        <ele>0</ele>
        <time>2020-07-12T15:47:28Z</time>
      </trkpt>
      <trkpt lat="51.225367624368" lon="4.45160697344">
        <ele>0</ele>
        <time>2020-07-12T15:47:50Z</time>
      </trkpt>
      <trkpt lat="51.225150533158" lon="4.4523982248">
        <ele>1.4</ele>
        <time>2020-07-12T15:48:12Z</time>
      </trkpt>
      <trkpt lat="51.225058751353" lon="4.453248065641">
        <ele>0</ele>
        <time>2020-07-12T15:48:34Z</time>
      </trkpt>
      <trkpt lat="51.225009046686" lon="4.454137133774">
        <ele>0</ele>
        <time>2020-07-12T15:48:55Z</time>
      </trkpt>
      <trkpt lat="51.224922880754" lon="4.454377023752">
        <ele>0</ele>
        <time>2020-07-12T15:49:25Z</time>
      </trkpt>
      <trkpt lat="51.224892957371" lon="4.45437551501">
        <ele>0</ele>
        <time>2020-07-12T15:49:28Z</time>
      </trkpt>
      <trkpt lat="51.224465983385" lon="4.454550612901">
        <ele>12.2</ele>
        <time>2020-07-12T15:51:08Z</time>
      </trkpt>
      <trkpt lat="51.224467659765" lon="4.454577937895">
        <ele>20.6</ele>
        <time>2020-07-12T15:57:00Z</time>
      </trkpt>
      <trkpt lat="51.224521471563" lon="4.454634767177">
        <ele>25.6</ele>
        <time>2020-07-12T15:57:38Z</time>
      </trkpt>
      <trkpt lat="51.224517699708" lon="4.454638119937">
        <ele>25.4</ele>
        <time>2020-07-12T15:57:41Z</time>
      </trkpt>
      <trkpt lat="51.224512754387" lon="4.454647423846">
        <ele>26</ele>
        <time>2020-07-12T15:57:45Z</time>
      </trkpt>
      <trkpt lat="51.224510323636" lon="4.454648932588">
        <ele>26.2</ele>
        <time>2020-07-12T15:57:46Z</time>
      </trkpt>
      <trkpt lat="51.224451147422" lon="4.454644154905">
        <ele>26.6</ele>
        <time>2020-07-12T15:57:56Z</time>
      </trkpt>
      <trkpt lat="51.2238947569" lon="4.454582045026">
        <ele>24.4</ele>
        <time>2020-07-12T15:58:20Z</time>
      </trkpt>
      <trkpt lat="51.223333672514" lon="4.454468135005">
        <ele>18.6</ele>
        <time>2020-07-12T15:58:38Z</time>
      </trkpt>
      <trkpt lat="51.222777114354" lon="4.454362858341">
        <ele>12</ele>
        <time>2020-07-12T15:58:59Z</time>
      </trkpt>
      <trkpt lat="51.222222986945" lon="4.454309717095">
        <ele>0.2</ele>
        <time>2020-07-12T15:59:21Z</time>
      </trkpt>
      <trkpt lat="51.221662237835" lon="4.454267891414">
        <ele>0</ele>
        <time>2020-07-12T15:59:41Z</time>
      </trkpt>
      <trkpt lat="51.221102243096" lon="4.454200584757">
        <ele>0</ele>
        <time>2020-07-12T16:00:02Z</time>
      </trkpt>
      <trkpt lat="51.220596982164" lon="4.454477187457">
        <ele>0.6</ele>
        <time>2020-07-12T16:00:21Z</time>
      </trkpt>
      <trkpt lat="51.220182832485" lon="4.455073978737">
        <ele>0</ele>
        <time>2020-07-12T16:00:40Z</time>
      </trkpt>
      <trkpt lat="51.21997957141" lon="4.45525980546">
        <ele>0</ele>
        <time>2020-07-12T16:00:55Z</time>
      </trkpt>
      <trkpt lat="51.219959287212" lon="4.455295596173">
        <ele>10.2</ele>
        <time>2020-07-12T16:01:16Z</time>
      </trkpt>
      <trkpt lat="51.219949983303" lon="4.45530842048">
        <ele>10.2</ele>
        <time>2020-07-12T16:01:17Z</time>
      </trkpt>
      <trkpt lat="51.219909750183" lon="4.455399280276">
        <ele>11</ele>
        <time>2020-07-12T16:01:21Z</time>
      </trkpt>
      <trkpt lat="51.219466347673" lon="4.455886436304">
        <ele>5.4</ele>
        <time>2020-07-12T16:01:44Z</time>
      </trkpt>
      <trkpt lat="51.218988998468" lon="4.456286336753">
        <ele>0.2</ele>
        <time>2020-07-12T16:02:00Z</time>
      </trkpt>
      <trkpt lat="51.218497483852" lon="4.456671987972">
        <ele>0</ele>
        <time>2020-07-12T16:02:15Z</time>
      </trkpt>
      <trkpt lat="51.218043687786" lon="4.457135926137">
        <ele>2.6</ele>
        <time>2020-07-12T16:02:34Z</time>
      </trkpt>
      <trkpt lat="51.217666586105" lon="4.45775928804">
        <ele>0.8</ele>
        <time>2020-07-12T16:02:51Z</time>
      </trkpt>
      <trkpt lat="51.217326951517" lon="4.458482478372">
        <ele>0</ele>
        <time>2020-07-12T16:03:08Z</time>
      </trkpt>
      <trkpt lat="51.217032160094" lon="4.45920348941">
        <ele>5.8</ele>
        <time>2020-07-12T16:03:24Z</time>
      </trkpt>
      <trkpt lat="51.216671403118" lon="4.459842609285">
        <ele>2.8</ele>
        <time>2020-07-12T16:03:42Z</time>
      </trkpt>
      <trkpt lat="51.216360853723" lon="4.460597734656">
        <ele>0.8</ele>
        <time>2020-07-12T16:03:59Z</time>
      </trkpt>
      <trkpt lat="51.216017531099" lon="4.461271974692">
        <ele>7.4</ele>
        <time>2020-07-12T16:04:16Z</time>
      </trkpt>
      <trkpt lat="51.215650655336" lon="4.461985609658">
        <ele>0</ele>
        <time>2020-07-12T16:04:32Z</time>
      </trkpt>
      <trkpt lat="51.215514281823" lon="4.462251399707">
        <ele>0</ele>
        <time>2020-07-12T16:04:38Z</time>
      </trkpt>
      <trkpt lat="51.21514321511" lon="4.461604233208">
        <ele>0</ele>
        <time>2020-07-12T16:04:57Z</time>
      </trkpt>
      <trkpt lat="51.214805927454" lon="4.460880623781">
        <ele>0</ele>
        <time>2020-07-12T16:05:16Z</time>
      </trkpt>
      <trkpt lat="51.214487163797" lon="4.460163049322">
        <ele>0</ele>
        <time>2020-07-12T16:05:33Z</time>
      </trkpt>
      <trkpt lat="51.214188600519" lon="4.459422592276">
        <ele>0</ele>
        <time>2020-07-12T16:05:54Z</time>
      </trkpt>
      <trkpt lat="51.213966647807" lon="4.458660090833">
        <ele>0</ele>
        <time>2020-07-12T16:06:08Z</time>
      </trkpt>
      <trkpt lat="51.214043258373" lon="4.457892308793">
        <ele>0</ele>
        <time>2020-07-12T16:06:27Z</time>
      </trkpt>
      <trkpt lat="51.213723991802" lon="4.458077464964">
        <ele>0</ele>
        <time>2020-07-12T16:06:47Z</time>
      </trkpt>
      <trkpt lat="51.213708150011" lon="4.458049553237">
        <ele>0</ele>
        <time>2020-07-12T16:06:51Z</time>
      </trkpt>
      <trkpt lat="51.213772523003" lon="4.457995238525">
        <ele>23</ele>
        <time>2020-07-12T16:07:29Z</time>
      </trkpt>
      <trkpt lat="51.21027919854" lon="4.454583469949">
        <ele>10.4</ele>
        <time>2020-07-12T16:27:31Z</time>
      </trkpt>
      <trkpt lat="51.20990704218" lon="4.455047911028">
        <ele>19.4</ele>
        <time>2020-07-12T16:27:50Z</time>
      </trkpt>
      <trkpt lat="51.209611412567" lon="4.455815022516">
        <ele>28.4</ele>
        <time>2020-07-12T16:28:11Z</time>
      </trkpt>
      <trkpt lat="51.209483588592" lon="4.456705264115">
        <ele>17</ele>
        <time>2020-07-12T16:28:31Z</time>
      </trkpt>
      <trkpt lat="51.209405134008" lon="4.457564576503">
        <ele>12.4</ele>
        <time>2020-07-12T16:28:51Z</time>
      </trkpt>
      <trkpt lat="51.209510410672" lon="4.45842900185">
        <ele>10.6</ele>
        <time>2020-07-12T16:29:08Z</time>
      </trkpt>
      <trkpt lat="51.209633289326" lon="4.459275741388">
        <ele>3.2</ele>
        <time>2020-07-12T16:29:25Z</time>
      </trkpt>
      <trkpt lat="51.209754575419" lon="4.460127258609">
        <ele>0</ele>
        <time>2020-07-12T16:29:37Z</time>
      </trkpt>
      <trkpt lat="51.209858343341" lon="4.460988247377">
        <ele>0.2</ele>
        <time>2020-07-12T16:29:54Z</time>
      </trkpt>
      <trkpt lat="51.209877789349" lon="4.461856779855">
        <ele>1.6</ele>
        <time>2020-07-12T16:30:17Z</time>
      </trkpt>
      <trkpt lat="51.209876112969" lon="4.462550046804">
        <ele>3.2</ele>
        <time>2020-07-12T16:32:21Z</time>
      </trkpt>
      <trkpt lat="51.209881561204" lon="4.462648869405">
        <ele>6.8</ele>
        <time>2020-07-12T16:36:39Z</time>
      </trkpt>
      <trkpt lat="51.209839316428" lon="4.463489741613">
        <ele>7.6</ele>
        <time>2020-07-12T16:37:20Z</time>
      </trkpt>
      <trkpt lat="51.209850631993" lon="4.463567441826">
        <ele>10.2</ele>
        <time>2020-07-12T16:37:42Z</time>
      </trkpt>
      <trkpt lat="51.209729764995" lon="4.4644262513">
        <ele>11.2</ele>
        <time>2020-07-12T16:38:05Z</time>
      </trkpt>
      <trkpt lat="51.20963630681" lon="4.465157572075">
        <ele>8</ele>
        <time>2020-07-12T16:40:27Z</time>
      </trkpt>
      <trkpt lat="51.209630607118" lon="4.465177018083">
        <ele>8</ele>
        <time>2020-07-12T16:40:28Z</time>
      </trkpt>
      <trkpt lat="51.209465064593" lon="4.466026439829">
        <ele>8.6</ele>
        <time>2020-07-12T16:40:49Z</time>
      </trkpt>
      <trkpt lat="51.209314106574" lon="4.466872844091">
        <ele>3.6</ele>
        <time>2020-07-12T16:41:07Z</time>
      </trkpt>
      <trkpt lat="51.209179325622" lon="4.467706172589">
        <ele>5.4</ele>
        <time>2020-07-12T16:41:24Z</time>
      </trkpt>
      <trkpt lat="51.209061559927" lon="4.468585014804">
        <ele>2.8</ele>
        <time>2020-07-12T16:41:45Z</time>
      </trkpt>
      <trkpt lat="51.209056111692" lon="4.469458492603">
        <ele>6.8</ele>
        <time>2020-07-12T16:42:04Z</time>
      </trkpt>
      <trkpt lat="51.209070780017" lon="4.470335993714">
        <ele>11.6</ele>
        <time>2020-07-12T16:42:25Z</time>
      </trkpt>
      <trkpt lat="51.209074551872" lon="4.471195892835">
        <ele>10.6</ele>
        <time>2020-07-12T16:42:40Z</time>
      </trkpt>
      <trkpt lat="51.209060218823" lon="4.472056713965">
        <ele>8.6</ele>
        <time>2020-07-12T16:42:56Z</time>
      </trkpt>
      <trkpt lat="51.209111096956" lon="4.472675298185">
        <ele>8.8</ele>
        <time>2020-07-12T16:43:47Z</time>
      </trkpt>
      <trkpt lat="51.208452866349" lon="4.477643166496">
        <ele>7.8</ele>
        <time>2020-07-12T16:46:38Z</time>
      </trkpt>
      <trkpt lat="51.208222028823" lon="4.478424611033">
        <ele>9.4</ele>
        <time>2020-07-12T16:46:56Z</time>
      </trkpt>
      <trkpt lat="51.207903097528" lon="4.479124834959">
        <ele>10.2</ele>
        <time>2020-07-12T16:47:14Z</time>
      </trkpt>
      <trkpt lat="51.207457180448" lon="4.47966370731">
        <ele>4</ele>
        <time>2020-07-12T16:47:30Z</time>
      </trkpt>
      <trkpt lat="51.207011431006" lon="4.480194868313">
        <ele>3.6</ele>
        <time>2020-07-12T16:47:45Z</time>
      </trkpt>
      <trkpt lat="51.20655092942" lon="4.48072150309">
        <ele>3.2</ele>
        <time>2020-07-12T16:48:01Z</time>
      </trkpt>
      <trkpt lat="51.206108448919" lon="4.481220393778">
        <ele>1.8</ele>
        <time>2020-07-12T16:48:16Z</time>
      </trkpt>
      <trkpt lat="51.205667896255" lon="4.48171894919">
        <ele>0</ele>
        <time>2020-07-12T16:48:32Z</time>
      </trkpt>
      <trkpt lat="51.205218794053" lon="4.482273244237">
        <ele>0</ele>
        <time>2020-07-12T16:48:50Z</time>
      </trkpt>
      <trkpt lat="51.204758208648" lon="4.482742546818">
        <ele>2.6</ele>
        <time>2020-07-12T16:49:07Z</time>
      </trkpt>
      <trkpt lat="51.204310028455" lon="4.483236324547">
        <ele>6.6</ele>
        <time>2020-07-12T16:49:26Z</time>
      </trkpt>
      <trkpt lat="51.203892442197" lon="4.483820207701">
        <ele>10.8</ele>
        <time>2020-07-12T16:49:48Z</time>
      </trkpt>
      <trkpt lat="51.20344375909" lon="4.484346255745">
        <ele>6</ele>
        <time>2020-07-12T16:50:06Z</time>
      </trkpt>
      <trkpt lat="51.203004296073" lon="4.484862748423">
        <ele>4.2</ele>
        <time>2020-07-12T16:50:24Z</time>
      </trkpt>
      <trkpt lat="51.202589978756" lon="4.48546230573">
        <ele>4</ele>
        <time>2020-07-12T16:50:43Z</time>
      </trkpt>
      <trkpt lat="51.20215629925" lon="4.485973853087">
        <ele>2</ele>
        <time>2020-07-12T16:51:05Z</time>
      </trkpt>
      <trkpt lat="51.201772911144" lon="4.486613727333">
        <ele>3.2</ele>
        <time>2020-07-12T16:51:23Z</time>
      </trkpt>
      <trkpt lat="51.20105659397" lon="4.487857601293">
        <ele>11.2</ele>
        <time>2020-07-12T16:52:01Z</time>
      </trkpt>
      <trkpt lat="51.200698519202" lon="4.488528740026">
        <ele>10.2</ele>
        <time>2020-07-12T16:52:16Z</time>
      </trkpt>
      <trkpt lat="51.200368942894" lon="4.489235669472">
        <ele>8</ele>
        <time>2020-07-12T16:52:39Z</time>
      </trkpt>
      <trkpt lat="51.199928893144" lon="4.489812008916">
        <ele>8.8</ele>
        <time>2020-07-12T16:53:00Z</time>
      </trkpt>
      <trkpt lat="51.199561346829" lon="4.490508125711">
        <ele>6.4</ele>
        <time>2020-07-12T16:53:19Z</time>
      </trkpt>
      <trkpt lat="51.199405862584" lon="4.490838624028">
        <ele>7.8</ele>
        <time>2020-07-12T16:53:29Z</time>
      </trkpt>
      <trkpt lat="51.199406700774" lon="4.490892854921">
        <ele>8.4</ele>
        <time>2020-07-12T16:53:35Z</time>
      </trkpt>
      <trkpt lat="51.199619601034" lon="4.491011626444">
        <ele>8</ele>
        <time>2020-07-12T17:03:02Z</time>
      </trkpt>
      <trkpt lat="51.200131818943" lon="4.491122518981">
        <ele>8</ele>
        <time>2020-07-12T17:03:26Z</time>
      </trkpt>
      <trkpt lat="51.200636241685" lon="4.491120172049">
        <ele>9.4</ele>
        <time>2020-07-12T17:03:50Z</time>
      </trkpt>
      <trkpt lat="51.201185926687" lon="4.491076418531">
        <ele>13.2</ele>
        <time>2020-07-12T17:04:08Z</time>
      </trkpt>
      <trkpt lat="51.201720775726" lon="4.490885981763">
        <ele>13.8</ele>
        <time>2020-07-12T17:04:26Z</time>
      </trkpt>
      <trkpt lat="51.201951697071" lon="4.490702585791">
        <ele>13.6</ele>
        <time>2020-07-12T17:04:32Z</time>
      </trkpt>
      <trkpt lat="51.202415383779" lon="4.490210232985">
        <ele>14</ele>
        <time>2020-07-12T17:04:52Z</time>
      </trkpt>
      <trkpt lat="51.202838753548" lon="4.489636994844">
        <ele>11.4</ele>
        <time>2020-07-12T17:05:08Z</time>
      </trkpt>
      <trkpt lat="51.203357257882" lon="4.489408420431">
        <ele>11.6</ele>
        <time>2020-07-12T17:05:23Z</time>
      </trkpt>
      <trkpt lat="51.203684654896" lon="4.490060196975">
        <ele>7.6</ele>
        <time>2020-07-12T17:05:49Z</time>
      </trkpt>
      <trkpt lat="51.203807030636" lon="4.490906517418">
        <ele>6.6</ele>
        <time>2020-07-12T17:06:12Z</time>
      </trkpt>
      <trkpt lat="51.20394415852" lon="4.491761135942">
        <ele>5.8</ele>
        <time>2020-07-12T17:06:32Z</time>
      </trkpt>
      <trkpt lat="51.204241548332" lon="4.49253998209">
        <ele>4.6</ele>
        <time>2020-07-12T17:06:48Z</time>
      </trkpt>
      <trkpt lat="51.204639940039" lon="4.49309318749">
        <ele>1.8</ele>
        <time>2020-07-12T17:07:08Z</time>
      </trkpt>
      <trkpt lat="51.20509331701" lon="4.493558802035">
        <ele>1.4</ele>
        <time>2020-07-12T17:07:24Z</time>
      </trkpt>
      <trkpt lat="51.205516267684" lon="4.493908997817">
        <ele>1</ele>
        <time>2020-07-12T17:07:38Z</time>
      </trkpt>
      <trkpt lat="51.205669740273" lon="4.494062554225">
        <ele>0.6</ele>
        <time>2020-07-12T17:07:42Z</time>
      </trkpt>
      <trkpt lat="51.206202912932" lon="4.494085436812">
        <ele>3.2</ele>
        <time>2020-07-12T17:07:58Z</time>
      </trkpt>
      <trkpt lat="51.206738097247" lon="4.49414930689">
        <ele>9</ele>
        <time>2020-07-12T17:08:23Z</time>
      </trkpt>
      <trkpt lat="51.206914620061" lon="4.494169255812">
        <ele>7.4</ele>
        <time>2020-07-12T17:08:34Z</time>
      </trkpt>
      <trkpt lat="51.206932557327" lon="4.495055725556">
        <ele>8</ele>
        <time>2020-07-12T17:08:56Z</time>
      </trkpt>
      <trkpt lat="51.206912859862" lon="4.495458392032">
        <ele>7.6</ele>
        <time>2020-07-12T17:09:09Z</time>
      </trkpt>
      <trkpt lat="51.20740253046" lon="4.495802552846">
        <ele>4</ele>
        <time>2020-07-12T17:09:32Z</time>
      </trkpt>
      <trkpt lat="51.207904522451" lon="4.495897268316">
        <ele>0.8</ele>
        <time>2020-07-12T17:09:50Z</time>
      </trkpt>
      <trkpt lat="51.208458817498" lon="4.49575695531">
        <ele>1.4</ele>
        <time>2020-07-12T17:10:09Z</time>
      </trkpt>
      <trkpt lat="51.208888892787" lon="4.495667101342">
        <ele>0.6</ele>
        <time>2020-07-12T17:10:23Z</time>
      </trkpt>
      <trkpt lat="51.208821083216" lon="4.494798485045">
        <ele>2.6</ele>
        <time>2020-07-12T17:10:47Z</time>
      </trkpt>
      <trkpt lat="51.208848324391" lon="4.493926096893">
        <ele>4.8</ele>
        <time>2020-07-12T17:11:05Z</time>
      </trkpt>
      <trkpt lat="51.208838433749" lon="4.493039459511">
        <ele>2.8</ele>
        <time>2020-07-12T17:11:22Z</time>
      </trkpt>
      <trkpt lat="51.208888808968" lon="4.492150056102">
        <ele>3.2</ele>
        <time>2020-07-12T17:11:40Z</time>
      </trkpt>
      <trkpt lat="51.208889144244" lon="4.491266687661">
        <ele>3</ele>
        <time>2020-07-12T17:11:57Z</time>
      </trkpt>
      <trkpt lat="51.208897107049" lon="4.491238608296">
        <ele>3.2</ele>
        <time>2020-07-12T17:11:58Z</time>
      </trkpt>
      <trkpt lat="51.20893055083" lon="4.491219497564">
        <ele>3.2</ele>
        <time>2020-07-12T17:12:00Z</time>
      </trkpt>
      <trkpt lat="51.209422484541" lon="4.491646136274">
        <ele>0</ele>
        <time>2020-07-12T17:12:20Z</time>
      </trkpt>
      <trkpt lat="51.209893212045" lon="4.492076295382">
        <ele>0</ele>
        <time>2020-07-12T17:12:37Z</time>
      </trkpt>
      <trkpt lat="51.210363771911" lon="4.492514920209">
        <ele>0.4</ele>
        <time>2020-07-12T17:12:54Z</time>
      </trkpt>
      <trkpt lat="51.21051472993" lon="4.493364509593">
        <ele>0.8</ele>
        <time>2020-07-12T17:13:10Z</time>
      </trkpt>
      <trkpt lat="51.21079049444" lon="4.49409566273">
        <ele>1.6</ele>
        <time>2020-07-12T17:13:28Z</time>
      </trkpt>
      <trkpt lat="51.210808599344" lon="4.494180152282">
        <ele>1.6</ele>
        <time>2020-07-12T17:13:30Z</time>
      </trkpt>
      <trkpt lat="51.210707345992" lon="4.495022449413">
        <ele>2.2</ele>
        <time>2020-07-12T17:13:53Z</time>
      </trkpt>
      <trkpt lat="51.210680523912" lon="4.495917552514">
        <ele>5.2</ele>
        <time>2020-07-12T17:14:16Z</time>
      </trkpt>
      <trkpt lat="51.210628304675" lon="4.496776781083">
        <ele>6.4</ele>
        <time>2020-07-12T17:14:37Z</time>
      </trkpt>
      <trkpt lat="51.210557309982" lon="4.497630058503">
        <ele>0.4</ele>
        <time>2020-07-12T17:14:56Z</time>
      </trkpt>
      <trkpt lat="51.210520010527" lon="4.498491550185">
        <ele>0</ele>
        <time>2020-07-12T17:15:14Z</time>
      </trkpt>
      <trkpt lat="51.210525794038" lon="4.499351365487">
        <ele>1.8</ele>
        <time>2020-07-12T17:15:32Z</time>
      </trkpt>
      <trkpt lat="51.210360586789" lon="4.499839946438">
        <ele>3</ele>
        <time>2020-07-12T17:15:50Z</time>
      </trkpt>
      <trkpt lat="51.2102909332" lon="4.500054523078">
        <ele>2.8</ele>
        <time>2020-07-12T17:15:58Z</time>
      </trkpt>
      <trkpt lat="51.210260423084" lon="4.500852228501">
        <ele>5.4</ele>
        <time>2020-07-12T17:16:20Z</time>
      </trkpt>
      <trkpt lat="51.209885165421" lon="4.50150107138">
        <ele>6.2</ele>
        <time>2020-07-12T17:16:37Z</time>
      </trkpt>
      <trkpt lat="51.209521726237" lon="4.502139017789">
        <ele>4</ele>
        <time>2020-07-12T17:16:58Z</time>
      </trkpt>
      <trkpt lat="51.209144708375" lon="4.50279775131">
        <ele>4.6</ele>
        <time>2020-07-12T17:17:15Z</time>
      </trkpt>
      <trkpt lat="51.208771462368" lon="4.503461346333">
        <ele>3.8</ele>
        <time>2020-07-12T17:17:33Z</time>
      </trkpt>
      <trkpt lat="51.208402072035" lon="4.504141034604">
        <ele>5.4</ele>
        <time>2020-07-12T17:17:53Z</time>
      </trkpt>
      <trkpt lat="51.208196547847" lon="4.504912337042">
        <ele>2</ele>
        <time>2020-07-12T17:18:14Z</time>
      </trkpt>
      <trkpt lat="51.208684793522" lon="4.505222383523">
        <ele>4.6</ele>
        <time>2020-07-12T17:18:31Z</time>
      </trkpt>
      <trkpt lat="51.209228527375" lon="4.505458334008">
        <ele>2.6</ele>
        <time>2020-07-12T17:18:48Z</time>
      </trkpt>
      <trkpt lat="51.20977460816" lon="4.505644663645">
        <ele>2.2</ele>
        <time>2020-07-12T17:19:06Z</time>
      </trkpt>
      <trkpt lat="51.210305098611" lon="4.505845745426">
        <ele>1.6</ele>
        <time>2020-07-12T17:19:23Z</time>
      </trkpt>
      <trkpt lat="51.210845731161" lon="4.506057304582">
        <ele>1.2</ele>
        <time>2020-07-12T17:19:40Z</time>
      </trkpt>
      <trkpt lat="51.211296258286" lon="4.506223601478">
        <ele>1.2</ele>
        <time>2020-07-12T17:19:56Z</time>
      </trkpt>
      <trkpt lat="51.211333306284" lon="4.50615218769">
        <ele>1.2</ele>
        <time>2020-07-12T17:19:58Z</time>
      </trkpt>
      <trkpt lat="51.211328025687" lon="4.505274016027">
        <ele>1.6</ele>
        <time>2020-07-12T17:20:18Z</time>
      </trkpt>
      <trkpt lat="51.211285445635" lon="4.504410680327">
        <ele>5.2</ele>
        <time>2020-07-12T17:20:39Z</time>
      </trkpt>
      <trkpt lat="51.211244961058" lon="4.503551870853">
        <ele>7.4</ele>
        <time>2020-07-12T17:20:58Z</time>
      </trkpt>
      <trkpt lat="51.211022589251" lon="4.502746370263">
        <ele>8.6</ele>
        <time>2020-07-12T17:21:17Z</time>
      </trkpt>
      <trkpt lat="51.211013369161" lon="4.502712675025">
        <ele>8.2</ele>
        <time>2020-07-12T17:21:18Z</time>
      </trkpt>
      <trkpt lat="51.211031725522" lon="4.502657354485">
        <ele>7.6</ele>
        <time>2020-07-12T17:21:20Z</time>
      </trkpt>
      <trkpt lat="51.211066426588" lon="4.502732623947">
        <ele>6</ele>
        <time>2020-07-12T17:21:23Z</time>
      </trkpt>
      <trkpt lat="51.211026528744" lon="4.502772857067">
        <ele>4</ele>
        <time>2020-07-12T17:21:38Z</time>
      </trkpt>
      <trkpt lat="51.211021751061" lon="4.50274075439">
        <ele>4.2</ele>
        <time>2020-07-12T17:21:40Z</time>
      </trkpt>
      <trkpt lat="51.210817987072" lon="4.501931398126">
        <ele>2.6</ele>
        <time>2020-07-12T17:22:04Z</time>
      </trkpt>
      <trkpt lat="51.210789907707" lon="4.501767196705">
        <ele>3</ele>
        <time>2020-07-12T17:22:09Z</time>
      </trkpt>
      <trkpt lat="51.210972549308" lon="4.500925570126">
        <ele>3.8</ele>
        <time>2020-07-12T17:22:31Z</time>
      </trkpt>
      <trkpt lat="51.21095226511" lon="4.500069107584">
        <ele>7.4</ele>
        <time>2020-07-12T17:22:51Z</time>
      </trkpt>
      <trkpt lat="51.211267256912" lon="4.499387072381">
        <ele>6.2</ele>
        <time>2020-07-12T17:23:09Z</time>
      </trkpt>
      <trkpt lat="51.211693476527" lon="4.498866221115">
        <ele>7.4</ele>
        <time>2020-07-12T17:23:28Z</time>
      </trkpt>
      <trkpt lat="51.212011150537" lon="4.498090643908">
        <ele>4.4</ele>
        <time>2020-07-12T17:23:43Z</time>
      </trkpt>
      <trkpt lat="51.212303595028" lon="4.497332249596">
        <ele>3</ele>
        <time>2020-07-12T17:23:57Z</time>
      </trkpt>
      <trkpt lat="51.212539545513" lon="4.496495819795">
        <ele>4</ele>
        <time>2020-07-12T17:24:12Z</time>
      </trkpt>
      <trkpt lat="51.213053355983" lon="4.496538232209">
        <ele>0</ele>
        <time>2020-07-12T17:24:29Z</time>
      </trkpt>
      <trkpt lat="51.213593988533" lon="4.496381909774">
        <ele>2</ele>
        <time>2020-07-12T17:24:46Z</time>
      </trkpt>
      <trkpt lat="51.214133866712" lon="4.496101535219">
        <ele>3.4</ele>
        <time>2020-07-12T17:25:03Z</time>
      </trkpt>
      <trkpt lat="51.214685898646" lon="4.495975806719">
        <ele>4.6</ele>
        <time>2020-07-12T17:25:18Z</time>
      </trkpt>
      <trkpt lat="51.215030562374" lon="4.495893077366">
        <ele>4.2</ele>
        <time>2020-07-12T17:25:28Z</time>
      </trkpt>
      <trkpt lat="51.215116309211" lon="4.495822837044">
        <ele>4.4</ele>
        <time>2020-07-12T17:25:30Z</time>
      </trkpt>
      <trkpt lat="51.215184118782" lon="4.495717392742">
        <ele>4.2</ele>
        <time>2020-07-12T17:25:32Z</time>
      </trkpt>
      <trkpt lat="51.215368604401" lon="4.495434419798">
        <ele>4.8</ele>
        <time>2020-07-12T17:25:38Z</time>
      </trkpt>
      <trkpt lat="51.215354690447" lon="4.495051869882">
        <ele>6.6</ele>
        <time>2020-07-12T17:27:12Z</time>
      </trkpt>
      <trkpt lat="51.215387463676" lon="4.49494810196">
        <ele>7</ele>
        <time>2020-07-12T17:27:15Z</time>
      </trkpt>
      <trkpt lat="51.215443119492" lon="4.494948856331">
        <ele>6.8</ele>
        <time>2020-07-12T17:27:17Z</time>
      </trkpt>
      <trkpt lat="51.215969754269" lon="4.495252448749">
        <ele>0.6</ele>
        <time>2020-07-12T17:27:40Z</time>
      </trkpt>
      <trkpt lat="51.216508794258" lon="4.495484459741">
        <ele>0</ele>
        <time>2020-07-12T17:27:56Z</time>
      </trkpt>
      <trkpt lat="51.217052779568" lon="4.495619156874">
        <ele>0</ele>
        <time>2020-07-12T17:28:15Z</time>
      </trkpt>
      <trkpt lat="51.217588718254" lon="4.495412040125">
        <ele>0</ele>
        <time>2020-07-12T17:28:32Z</time>
      </trkpt>
      <trkpt lat="51.21798719378" lon="4.495012307314">
        <ele>3.4</ele>
        <time>2020-07-12T17:28:45Z</time>
      </trkpt>
      <trkpt lat="51.217719392075" lon="4.494159616627">
        <ele>6.8</ele>
        <time>2020-07-12T17:29:09Z</time>
      </trkpt>
      <trkpt lat="51.21764353588" lon="4.493317990048">
        <ele>5</ele>
        <time>2020-07-12T17:29:28Z</time>
      </trkpt>
      <trkpt lat="51.217621826759" lon="4.493190333711">
        <ele>5.6</ele>
        <time>2020-07-12T17:29:33Z</time>
      </trkpt>
      <trkpt lat="51.21759995" lon="4.493182203268">
        <ele>4.8</ele>
        <time>2020-07-12T17:29:35Z</time>
      </trkpt>
      <trkpt lat="51.217606068787" lon="4.493254622884">
        <ele>3.8</ele>
        <time>2020-07-12T17:29:39Z</time>
      </trkpt>
      <trkpt lat="51.21761252285" lon="4.492793702203">
        <ele>1.8</ele>
        <time>2020-07-12T17:29:50Z</time>
      </trkpt>
      <trkpt lat="51.217518394113" lon="4.49188703208">
        <ele>2.4</ele>
        <time>2020-07-12T17:30:01Z</time>
      </trkpt>
      <trkpt lat="51.21754714403" lon="4.491852247195">
        <ele>2</ele>
        <time>2020-07-12T17:30:03Z</time>
      </trkpt>
      <trkpt lat="51.217560219794" lon="4.491911171952">
        <ele>2.2</ele>
        <time>2020-07-12T17:30:05Z</time>
      </trkpt>
      <trkpt lat="51.217540857605" lon="4.491914273255">
        <ele>3</ele>
        <time>2020-07-12T17:30:07Z</time>
      </trkpt>
      <trkpt lat="51.217526273099" lon="4.491602634213">
        <ele>3.4</ele>
        <time>2020-07-12T17:30:13Z</time>
      </trkpt>
      <trkpt lat="51.217481429934" lon="4.490718176125">
        <ele>3</ele>
        <time>2020-07-12T17:30:27Z</time>
      </trkpt>
      <trkpt lat="51.217420242064" lon="4.489843105765">
        <ele>2.2</ele>
        <time>2020-07-12T17:30:42Z</time>
      </trkpt>
      <trkpt lat="51.217311025907" lon="4.488991756182">
        <ele>0</ele>
        <time>2020-07-12T17:30:58Z</time>
      </trkpt>
      <trkpt lat="51.217190745642" lon="4.488131605604">
        <ele>1.2</ele>
        <time>2020-07-12T17:31:13Z</time>
      </trkpt>
      <trkpt lat="51.217165097028" lon="4.487265420058">
        <ele>3.8</ele>
        <time>2020-07-12T17:31:33Z</time>
      </trkpt>
      <trkpt lat="51.217089576109" lon="4.486668377321">
        <ele>3</ele>
        <time>2020-07-12T17:31:46Z</time>
      </trkpt>
      <trkpt lat="51.216770058081" lon="4.486384147092">
        <ele>2</ele>
        <time>2020-07-12T17:31:59Z</time>
      </trkpt>
      <trkpt lat="51.216813057228" lon="4.485500694832">
        <ele>1.4</ele>
        <time>2020-07-12T17:32:17Z</time>
      </trkpt>
      <trkpt lat="51.216866030836" lon="4.484643561738">
        <ele>2.8</ele>
        <time>2020-07-12T17:32:40Z</time>
      </trkpt>
      <trkpt lat="51.21690676687" lon="4.483783159703">
        <ele>2</ele>
        <time>2020-07-12T17:33:00Z</time>
      </trkpt>
      <trkpt lat="51.216924117403" lon="4.482896857597">
        <ele>2.4</ele>
        <time>2020-07-12T17:33:21Z</time>
      </trkpt>
      <trkpt lat="51.216973905889" lon="4.482222030828">
        <ele>1.4</ele>
        <time>2020-07-12T17:33:39Z</time>
      </trkpt>
      <trkpt lat="51.217047750428" lon="4.482046597661">
        <ele>3.4</ele>
        <time>2020-07-12T17:34:14Z</time>
      </trkpt>
      <trkpt lat="51.217039033252" lon="4.481188039644">
        <ele>4.2</ele>
        <time>2020-07-12T17:34:37Z</time>
      </trkpt>
      <trkpt lat="51.21704171546" lon="4.481113356915">
        <ele>3.8</ele>
        <time>2020-07-12T17:34:38Z</time>
      </trkpt>
      <trkpt lat="51.217041631641" lon="4.480957118299">
        <ele>3</ele>
        <time>2020-07-12T17:34:40Z</time>
      </trkpt>
      <trkpt lat="51.217110614678" lon="4.480078527541">
        <ele>2.4</ele>
        <time>2020-07-12T17:34:55Z</time>
      </trkpt>
      <trkpt lat="51.217169539435" lon="4.479206223208">
        <ele>3</ele>
        <time>2020-07-12T17:35:11Z</time>
      </trkpt>
      <trkpt lat="51.217204659596" lon="4.47831757417">
        <ele>5.4</ele>
        <time>2020-07-12T17:35:28Z</time>
      </trkpt>
      <trkpt lat="51.21727221771" lon="4.477421465241">
        <ele>4</ele>
        <time>2020-07-12T17:35:47Z</time>
      </trkpt>
      <trkpt lat="51.217296776677" lon="4.476558297179">
        <ele>5.8</ele>
        <time>2020-07-12T17:36:04Z</time>
      </trkpt>
      <trkpt lat="51.217318988712" lon="4.475693788013">
        <ele>6</ele>
        <time>2020-07-12T17:36:20Z</time>
      </trkpt>
      <trkpt lat="51.217350504656" lon="4.474802037672">
        <ele>4.8</ele>
        <time>2020-07-12T17:36:38Z</time>
      </trkpt>
      <trkpt lat="51.217402304798" lon="4.473936606497">
        <ele>5</ele>
        <time>2020-07-12T17:36:54Z</time>
      </trkpt>
      <trkpt lat="51.2173987844" lon="4.473023398492">
        <ele>8.2</ele>
        <time>2020-07-12T17:37:13Z</time>
      </trkpt>
      <trkpt lat="51.217449578714" lon="4.47217364147">
        <ele>3.6</ele>
        <time>2020-07-12T17:37:30Z</time>
      </trkpt>
      <trkpt lat="51.21751445462" lon="4.471310641046">
        <ele>0</ele>
        <time>2020-07-12T17:37:46Z</time>
      </trkpt>
      <trkpt lat="51.217532308067" lon="4.470453843228">
        <ele>0</ele>
        <time>2020-07-12T17:38:04Z</time>
      </trkpt>
      <trkpt lat="51.21752032195" lon="4.46958531075">
        <ele>0.6</ele>
        <time>2020-07-12T17:38:27Z</time>
      </trkpt>
      <trkpt lat="51.217522249787" lon="4.468691297296">
        <ele>0</ele>
        <time>2020-07-12T17:38:45Z</time>
      </trkpt>
      <trkpt lat="51.217601794018" lon="4.467812874176">
        <ele>1.6</ele>
        <time>2020-07-12T17:39:06Z</time>
      </trkpt>
      <trkpt lat="51.217667340476" lon="4.466927158803">
        <ele>0</ele>
        <time>2020-07-12T17:39:30Z</time>
      </trkpt>
      <trkpt lat="51.217679745688" lon="4.466011520047">
        <ele>3.4</ele>
        <time>2020-07-12T17:39:51Z</time>
      </trkpt>
      <trkpt lat="51.217719140618" lon="4.465149106356">
        <ele>1.4</ele>
        <time>2020-07-12T17:40:12Z</time>
      </trkpt>
      <trkpt lat="51.217774042063" lon="4.464262971888">
        <ele>7</ele>
        <time>2020-07-12T17:40:32Z</time>
      </trkpt>
      <trkpt lat="51.21783380501" lon="4.463387566252">
        <ele>1.6</ele>
        <time>2020-07-12T17:40:51Z</time>
      </trkpt>
      <trkpt lat="51.217829278784" lon="4.462501096508">
        <ele>1</ele>
        <time>2020-07-12T17:41:07Z</time>
      </trkpt>
      <trkpt lat="51.217885521333" lon="4.4616183148">
        <ele>0</ele>
        <time>2020-07-12T17:41:26Z</time>
      </trkpt>
      <trkpt lat="51.217940674235" lon="4.460734359626">
        <ele>0</ele>
        <time>2020-07-12T17:41:53Z</time>
      </trkpt>
      <trkpt lat="51.217924916263" lon="4.460305960717">
        <ele>1</ele>
        <time>2020-07-12T17:43:17Z</time>
      </trkpt>
      <trkpt lat="51.217893903233" lon="4.460217196396">
        <ele>4.6</ele>
        <time>2020-07-12T17:44:07Z</time>
      </trkpt>
      <trkpt lat="51.217898680916" lon="4.460136227242">
        <ele>5.6</ele>
        <time>2020-07-12T17:44:10Z</time>
      </trkpt>
      <trkpt lat="51.217984930667" lon="4.459262749443">
        <ele>2.4</ele>
        <time>2020-07-12T17:44:32Z</time>
      </trkpt>
      <trkpt lat="51.218012758575" lon="4.458411232222">
        <ele>0</ele>
        <time>2020-07-12T17:44:51Z</time>
      </trkpt>
      <trkpt lat="51.218085848743" lon="4.457512189628">
        <ele>0</ele>
        <time>2020-07-12T17:45:11Z</time>
      </trkpt>
      <trkpt lat="51.218114347203" lon="4.456611386835">
        <ele>0</ele>
        <time>2020-07-12T17:45:30Z</time>
      </trkpt>
      <trkpt lat="51.218162291671" lon="4.455742938176">
        <ele>2.2</ele>
        <time>2020-07-12T17:45:49Z</time>
      </trkpt>
      <trkpt lat="51.218214762365" lon="4.454858060993">
        <ele>0</ele>
        <time>2020-07-12T17:46:04Z</time>
      </trkpt>
      <trkpt lat="51.218263377385" lon="4.453980224606">
        <ele>1.4</ele>
        <time>2020-07-12T17:46:20Z</time>
      </trkpt>
      <trkpt lat="51.218249882526" lon="4.45308134965">
        <ele>0.2</ele>
        <time>2020-07-12T17:46:37Z</time>
      </trkpt>
      <trkpt lat="51.218284918868" lon="4.452179289572">
        <ele>0</ele>
        <time>2020-07-12T17:46:53Z</time>
      </trkpt>
      <trkpt lat="51.218362032348" lon="4.451933196988">
        <ele>0</ele>
        <time>2020-07-12T17:46:58Z</time>
      </trkpt>
      <trkpt lat="51.218433781412" lon="4.451852479291">
        <ele>0</ele>
        <time>2020-07-12T17:47:00Z</time>
      </trkpt>
      <trkpt lat="51.218522881009" lon="4.451814090189">
        <ele>0</ele>
        <time>2020-07-12T17:47:02Z</time>
      </trkpt>
      <trkpt lat="51.218659841255" lon="4.451795985285">
        <ele>0</ele>
        <time>2020-07-12T17:47:05Z</time>
      </trkpt>
      <trkpt lat="51.218750114318" lon="4.451817862044">
        <ele>0</ele>
        <time>2020-07-12T17:47:07Z</time>
      </trkpt>
      <trkpt lat="51.21927297724" lon="4.452126315964">
        <ele>0</ele>
        <time>2020-07-12T17:47:24Z</time>
      </trkpt>
      <trkpt lat="51.219808999745" lon="4.452009053183">
        <ele>1.8</ele>
        <time>2020-07-12T17:47:43Z</time>
      </trkpt>
      <trkpt lat="51.220366060819" lon="4.451947781494">
        <ele>0</ele>
        <time>2020-07-12T17:48:04Z</time>
      </trkpt>
      <trkpt lat="51.220920188228" lon="4.45171509995">
        <ele>7.6</ele>
        <time>2020-07-12T17:48:19Z</time>
      </trkpt>
      <trkpt lat="51.220976346958" lon="4.451698671426">
        <ele>8.2</ele>
        <time>2020-07-12T17:48:20Z</time>
      </trkpt>
      <trkpt lat="51.221523014476" lon="4.45157093127">
        <ele>10.6</ele>
        <time>2020-07-12T17:48:30Z</time>
      </trkpt>
      <trkpt lat="51.222034980928" lon="4.451262142074">
        <ele>4.4</ele>
        <time>2020-07-12T17:48:46Z</time>
      </trkpt>
      <trkpt lat="51.222326587229" lon="4.45112333781">
        <ele>2</ele>
        <time>2020-07-12T17:48:54Z</time>
      </trkpt>
      <trkpt lat="51.222878619163" lon="4.451042452475">
        <ele>1.4</ele>
        <time>2020-07-12T17:49:08Z</time>
      </trkpt>
      <trkpt lat="51.223427298337" lon="4.451234481804">
        <ele>1</ele>
        <time>2020-07-12T17:49:23Z</time>
      </trkpt>
      <trkpt lat="51.22399031056" lon="4.451345709617">
        <ele>0</ele>
        <time>2020-07-12T17:49:39Z</time>
      </trkpt>
      <trkpt lat="51.224106651332" lon="4.451269937241">
        <ele>0</ele>
        <time>2020-07-12T17:49:42Z</time>
      </trkpt>
      <trkpt lat="51.224507976704" lon="4.450684461526">
        <ele>0</ele>
        <time>2020-07-12T17:49:55Z</time>
      </trkpt>
      <trkpt lat="51.224918270709" lon="4.450051208981">
        <ele>0</ele>
        <time>2020-07-12T17:50:11Z</time>
      </trkpt>
      <trkpt lat="51.225425710935" lon="4.449696570792">
        <ele>0</ele>
        <time>2020-07-12T17:50:30Z</time>
      </trkpt>
      <trkpt lat="51.225818235312" lon="4.449632449257">
        <ele>0</ele>
        <time>2020-07-12T17:50:41Z</time>
      </trkpt>
      <trkpt lat="51.226219728322" lon="4.449025012964">
        <ele>1</ele>
        <time>2020-07-12T17:50:56Z</time>
      </trkpt>
      <trkpt lat="51.226296506526" lon="4.448854860394">
        <ele>1.2</ele>
        <time>2020-07-12T17:51:00Z</time>
      </trkpt>
      <trkpt lat="51.226512005175" lon="4.449191393679">
        <ele>0.6</ele>
        <time>2020-07-12T17:51:08Z</time>
      </trkpt>
      <trkpt lat="51.226618706762" lon="4.449332293418">
        <ele>0</ele>
        <time>2020-07-12T17:51:13Z</time>
      </trkpt>
      <trkpt lat="51.227001256678" lon="4.448731395007">
        <ele>0</ele>
        <time>2020-07-12T17:51:36Z</time>
      </trkpt>
      <trkpt lat="51.22737827454" lon="4.448114570986">
        <ele>0</ele>
        <time>2020-07-12T17:51:57Z</time>
      </trkpt>
      <trkpt lat="51.227788484726" lon="4.447500177716">
        <ele>0</ele>
        <time>2020-07-12T17:52:12Z</time>
      </trkpt>
      <trkpt lat="51.228171872832" lon="4.446954935121">
        <ele>0</ele>
        <time>2020-07-12T17:52:33Z</time>
      </trkpt>
      <trkpt lat="51.2285634752" lon="4.447558180464">
        <ele>0</ele>
        <time>2020-07-12T17:52:49Z</time>
      </trkpt>
      <trkpt lat="51.228947785315" lon="4.448185900955">
        <ele>3.4</ele>
        <time>2020-07-12T17:53:07Z</time>
      </trkpt>
      <trkpt lat="51.229018780008" lon="4.448498629644">
        <ele>4</ele>
        <time>2020-07-12T17:53:22Z</time>
      </trkpt>
      <trkpt lat="51.228638157929" lon="4.449152082568">
        <ele>3.2</ele>
        <time>2020-07-12T17:53:40Z</time>
      </trkpt>
      <trkpt lat="51.228503544615" lon="4.449278230163">
        <ele>0</ele>
        <time>2020-07-12T17:54:18Z</time>
      </trkpt>
    </trkseg>
  </trk>
</gpx>